sensor_id;sensor_type;location;lat;lon;timestamp;P1;durP1;ratioP1;P2;durP2;ratioP2
65822;SDS011;52585;47.566;19.056;2022-12-16T00:01:31;8.80;;;6.50;;
65822;SDS011;52585;47.566;19.056;2022-12-16T00:03:57;8.50;;;6.70;;
65822;SDS011;52585;47.566;19.056;2022-12-16T00:06:28;9.90;;;6.80;;
65822;SDS011;52585;47.566;19.056;2022-12-16T00:08:55;8.40;;;6.00;;
65822;SDS011;52585;47.566;19.056;2022-12-16T00:11:21;10.50;;;7.20;;
65822;SDS011;52585;47.566;19.056;2022-12-16T00:13:46;10.10;;;6.80;;
65822;SDS011;52585;47.566;19.056;2022-12-16T00:16:14;12.00;;;7.40;;
65822;SDS011;52585;47.566;19.056;2022-12-16T00:18:42;9.70;;;7.20;;
65822;SDS011;52585;47.566;19.056;2022-12-16T00:21:09;9.30;;;6.60;;
65822;SDS011;52585;47.566;19.056;2022-12-16T00:23:35;10.30;;;6.80;;
65822;SDS011;52585;47.566;19.056;2022-12-16T00:26:03;9.40;;;6.60;;
65822;SDS011;52585;47.566;19.056;2022-12-16T00:28:30;9.80;;;6.60;;
65822;SDS011;52585;47.566;19.056;2022-12-16T00:30:56;9.30;;;7.20;;
65822;SDS011;52585;47.566;19.056;2022-12-16T00:33:24;10.70;;;7.50;;
65822;SDS011;52585;47.566;19.056;2022-12-16T00:35:52;10.10;;;7.20;;
65822;SDS011;52585;47.566;19.056;2022-12-16T00:38:19;9.30;;;6.50;;
65822;SDS011;52585;47.566;19.056;2022-12-16T00:40:46;8.30;;;6.00;;
65822;SDS011;52585;47.566;19.056;2022-12-16T00:43:12;8.70;;;5.90;;
65822;SDS011;52585;47.566;19.056;2022-12-16T00:45:37;6.00;;;5.10;;
65822;SDS011;52585;47.566;19.056;2022-12-16T00:48:04;7.80;;;5.60;;
65822;SDS011;52585;47.566;19.056;2022-12-16T00:50:30;7.70;;;6.10;;
65822;SDS011;52585;47.566;19.056;2022-12-16T00:52:56;9.30;;;6.20;;
65822;SDS011;52585;47.566;19.056;2022-12-16T00:55:22;8.00;;;6.60;;
65822;SDS011;52585;47.566;19.056;2022-12-16T00:57:48;7.10;;;5.30;;
65822;SDS011;52585;47.566;19.056;2022-12-16T01:00:15;7.20;;;5.00;;
65822;SDS011;52585;47.566;19.056;2022-12-16T01:02:44;6.80;;;5.40;;
65822;SDS011;52585;47.566;19.056;2022-12-16T01:05:14;6.70;;;5.30;;
65822;SDS011;52585;47.566;19.056;2022-12-16T01:07:42;6.70;;;5.20;;
65822;SDS011;52585;47.566;19.056;2022-12-16T01:10:09;6.40;;;5.60;;
65822;SDS011;52585;47.566;19.056;2022-12-16T01:12:36;7.70;;;5.80;;
65822;SDS011;52585;47.566;19.056;2022-12-16T01:15:04;6.80;;;6.10;;
65822;SDS011;52585;47.566;19.056;2022-12-16T01:17:31;7.40;;;5.40;;
65822;SDS011;52585;47.566;19.056;2022-12-16T01:19:57;5.70;;;5.10;;
65822;SDS011;52585;47.566;19.056;2022-12-16T01:22:23;5.90;;;5.00;;
65822;SDS011;52585;47.566;19.056;2022-12-16T01:24:48;5.80;;;4.80;;
65822;SDS011;52585;47.566;19.056;2022-12-16T01:27:14;6.10;;;4.90;;
65822;SDS011;52585;47.566;19.056;2022-12-16T01:29:40;6.70;;;5.00;;
65822;SDS011;52585;47.566;19.056;2022-12-16T01:32:10;7.20;;;5.30;;
65822;SDS011;52585;47.566;19.056;2022-12-16T01:34:36;6.80;;;6.00;;
65822;SDS011;52585;47.566;19.056;2022-12-16T01:37:02;6.10;;;5.00;;
65822;SDS011;52585;47.566;19.056;2022-12-16T01:39:27;5.90;;;4.90;;
65822;SDS011;52585;47.566;19.056;2022-12-16T01:41:54;4.80;;;4.30;;
65822;SDS011;52585;47.566;19.056;2022-12-16T01:44:23;5.40;;;4.80;;
65822;SDS011;52585;47.566;19.056;2022-12-16T01:46:55;5.30;;;4.80;;
65822;SDS011;52585;47.566;19.056;2022-12-16T01:49:40;5.70;;;5.10;;
65822;SDS011;52585;47.566;19.056;2022-12-16T01:52:19;5.90;;;4.80;;
65822;SDS011;52585;47.566;19.056;2022-12-16T01:55:01;6.30;;;4.50;;
65822;SDS011;52585;47.566;19.056;2022-12-16T01:57:39;5.50;;;4.40;;
65822;SDS011;52585;47.566;19.056;2022-12-16T02:00:09;4.50;;;3.80;;
65822;SDS011;52585;47.566;19.056;2022-12-16T02:02:37;4.70;;;4.30;;
65822;SDS011;52585;47.566;19.056;2022-12-16T02:05:04;4.50;;;4.10;;
65822;SDS011;52585;47.566;19.056;2022-12-16T02:08:15;5.00;;;4.50;;
65822;SDS011;52585;47.566;19.056;2022-12-16T02:16:21;4.00;;;3.70;;
65822;SDS011;52585;47.566;19.056;2022-12-16T02:29:14;4.20;;;3.70;;
65822;SDS011;52585;47.566;19.056;2022-12-16T02:34:12;3.80;;;3.40;;
65822;SDS011;52585;47.566;19.056;2022-12-16T02:37:37;3.40;;;3.10;;
65822;SDS011;52585;47.566;19.056;2022-12-16T02:40:28;3.20;;;2.90;;
65822;SDS011;52585;47.566;19.056;2022-12-16T02:43:06;3.20;;;2.90;;
65822;SDS011;52585;47.566;19.056;2022-12-16T02:45:37;3.50;;;3.20;;
65822;SDS011;52585;47.566;19.056;2022-12-16T02:48:05;3.60;;;3.30;;
65822;SDS011;52585;47.566;19.056;2022-12-16T02:50:46;4.70;;;4.00;;
65822;SDS011;52585;47.566;19.056;2022-12-16T02:53:16;3.80;;;3.50;;
65822;SDS011;52585;47.566;19.056;2022-12-16T03:04:11;3.50;;;3.10;;
65822;SDS011;52585;47.566;19.056;2022-12-16T03:06:49;3.80;;;3.40;;
65822;SDS011;52585;47.566;19.056;2022-12-16T03:09:22;4.00;;;3.20;;
65822;SDS011;52585;47.566;19.056;2022-12-16T03:11:53;3.60;;;3.30;;
65822;SDS011;52585;47.566;19.056;2022-12-16T03:14:22;3.30;;;3.00;;
65822;SDS011;52585;47.566;19.056;2022-12-16T03:16:53;3.00;;;2.70;;
65822;SDS011;52585;47.566;19.056;2022-12-16T03:19:22;4.20;;;2.90;;
65822;SDS011;52585;47.566;19.056;2022-12-16T03:21:55;3.90;;;3.30;;
65822;SDS011;52585;47.566;19.056;2022-12-16T03:24:33;4.30;;;3.70;;
65822;SDS011;52585;47.566;19.056;2022-12-16T03:29:58;3.40;;;3.10;;
65822;SDS011;52585;47.566;19.056;2022-12-16T03:32:36;4.00;;;3.50;;
65822;SDS011;52585;47.566;19.056;2022-12-16T03:35:13;3.40;;;3.10;;
65822;SDS011;52585;47.566;19.056;2022-12-16T03:37:46;3.40;;;3.10;;
65822;SDS011;52585;47.566;19.056;2022-12-16T03:40:14;4.60;;;4.00;;
65822;SDS011;52585;47.566;19.056;2022-12-16T03:42:42;4.30;;;3.90;;
65822;SDS011;52585;47.566;19.056;2022-12-16T03:45:13;7.10;;;4.60;;
65822;SDS011;52585;47.566;19.056;2022-12-16T03:47:48;4.40;;;4.00;;
65822;SDS011;52585;47.566;19.056;2022-12-16T03:50:16;3.40;;;3.00;;
65822;SDS011;52585;47.566;19.056;2022-12-16T03:52:45;4.20;;;3.70;;
65822;SDS011;52585;47.566;19.056;2022-12-16T03:55:11;4.30;;;3.80;;
65822;SDS011;52585;47.566;19.056;2022-12-16T03:57:37;5.80;;;4.60;;
65822;SDS011;52585;47.566;19.056;2022-12-16T04:00:04;4.20;;;3.80;;
65822;SDS011;52585;47.566;19.056;2022-12-16T04:02:30;4.80;;;4.00;;
65822;SDS011;52585;47.566;19.056;2022-12-16T04:04:55;4.10;;;3.60;;
65822;SDS011;52585;47.566;19.056;2022-12-16T04:07:21;4.60;;;3.50;;
65822;SDS011;52585;47.566;19.056;2022-12-16T04:09:51;4.80;;;3.60;;
65822;SDS011;52585;47.566;19.056;2022-12-16T04:12:18;4.30;;;3.60;;
65822;SDS011;52585;47.566;19.056;2022-12-16T04:15:04;4.90;;;4.40;;
65822;SDS011;52585;47.566;19.056;2022-12-16T04:18:03;4.50;;;4.10;;
65822;SDS011;52585;47.566;19.056;2022-12-16T04:20:51;4.90;;;4.20;;
65822;SDS011;52585;47.566;19.056;2022-12-16T04:23:46;4.10;;;3.70;;
65822;SDS011;52585;47.566;19.056;2022-12-16T04:26:39;4.10;;;3.70;;
65822;SDS011;52585;47.566;19.056;2022-12-16T04:29:24;4.40;;;4.00;;
65822;SDS011;52585;47.566;19.056;2022-12-16T04:31:50;5.30;;;3.90;;
65822;SDS011;52585;47.566;19.056;2022-12-16T04:34:17;4.30;;;3.90;;
65822;SDS011;52585;47.566;19.056;2022-12-16T04:36:55;5.50;;;4.90;;
65822;SDS011;52585;47.566;19.056;2022-12-16T04:39:42;4.40;;;4.00;;
65822;SDS011;52585;47.566;19.056;2022-12-16T04:42:26;3.50;;;3.20;;
65822;SDS011;52585;47.566;19.056;2022-12-16T04:45:11;3.70;;;3.40;;
65822;SDS011;52585;47.566;19.056;2022-12-16T04:47:57;4.10;;;3.60;;
65822;SDS011;52585;47.566;19.056;2022-12-16T04:50:41;4.40;;;4.00;;
65822;SDS011;52585;47.566;19.056;2022-12-16T04:53:25;4.00;;;3.70;;
65822;SDS011;52585;47.566;19.056;2022-12-16T04:56:10;4.50;;;4.10;;
65822;SDS011;52585;47.566;19.056;2022-12-16T04:58:54;4.70;;;4.30;;
65822;SDS011;52585;47.566;19.056;2022-12-16T05:01:38;4.30;;;3.80;;
65822;SDS011;52585;47.566;19.056;2022-12-16T05:04:22;3.80;;;3.40;;
65822;SDS011;52585;47.566;19.056;2022-12-16T05:07:06;3.40;;;3.10;;
65822;SDS011;52585;47.566;19.056;2022-12-16T05:12:35;4.50;;;4.00;;
65822;SDS011;52585;47.566;19.056;2022-12-16T05:15:19;4.50;;;4.00;;
65822;SDS011;52585;47.566;19.056;2022-12-16T05:18:14;4.30;;;3.90;;
65822;SDS011;52585;47.566;19.056;2022-12-16T05:21:01;4.10;;;3.60;;
65822;SDS011;52585;47.566;19.056;2022-12-16T05:23:46;4.10;;;3.70;;
65822;SDS011;52585;47.566;19.056;2022-12-16T05:26:31;4.10;;;3.80;;
65822;SDS011;52585;47.566;19.056;2022-12-16T05:29:16;4.80;;;4.30;;
65822;SDS011;52585;47.566;19.056;2022-12-16T05:32:00;4.50;;;4.00;;
65822;SDS011;52585;47.566;19.056;2022-12-16T05:34:44;5.50;;;4.10;;
65822;SDS011;52585;47.566;19.056;2022-12-16T05:37:29;4.20;;;3.80;;
65822;SDS011;52585;47.566;19.056;2022-12-16T05:40:13;4.30;;;3.90;;
65822;SDS011;52585;47.566;19.056;2022-12-16T05:42:57;4.20;;;3.80;;
65822;SDS011;52585;47.566;19.056;2022-12-16T05:45:42;3.80;;;3.50;;
65822;SDS011;52585;47.566;19.056;2022-12-16T05:48:26;4.70;;;4.30;;
65822;SDS011;52585;47.566;19.056;2022-12-16T05:51:10;5.20;;;4.50;;
65822;SDS011;52585;47.566;19.056;2022-12-16T05:53:55;3.70;;;3.40;;
65822;SDS011;52585;47.566;19.056;2022-12-16T05:56:39;3.40;;;3.10;;
65822;SDS011;52585;47.566;19.056;2022-12-16T06:02:07;3.70;;;3.40;;
65822;SDS011;52585;47.566;19.056;2022-12-16T06:04:51;3.70;;;3.40;;
65822;SDS011;52585;47.566;19.056;2022-12-16T06:07:35;4.70;;;4.30;;
65822;SDS011;52585;47.566;19.056;2022-12-16T06:10:19;4.50;;;4.10;;
65822;SDS011;52585;47.566;19.056;2022-12-16T06:13:04;3.90;;;3.60;;
65822;SDS011;52585;47.566;19.056;2022-12-16T06:15:48;4.40;;;4.00;;
65822;SDS011;52585;47.566;19.056;2022-12-16T06:18:32;4.50;;;3.40;;
65822;SDS011;52585;47.566;19.056;2022-12-16T06:21:17;4.00;;;3.70;;
65822;SDS011;52585;47.566;19.056;2022-12-16T06:24:01;3.40;;;3.10;;
65822;SDS011;52585;47.566;19.056;2022-12-16T06:26:45;4.50;;;4.00;;
65822;SDS011;52585;47.566;19.056;2022-12-16T06:29:29;5.50;;;4.10;;
65822;SDS011;52585;47.566;19.056;2022-12-16T06:32:13;4.40;;;4.00;;
65822;SDS011;52585;47.566;19.056;2022-12-16T06:34:58;3.80;;;3.50;;
65822;SDS011;52585;47.566;19.056;2022-12-16T06:37:46;3.50;;;3.20;;
65822;SDS011;52585;47.566;19.056;2022-12-16T06:40:30;3.60;;;3.20;;
65822;SDS011;52585;47.566;19.056;2022-12-16T06:43:14;4.80;;;4.00;;
65822;SDS011;52585;47.566;19.056;2022-12-16T06:45:59;5.00;;;4.40;;
65822;SDS011;52585;47.566;19.056;2022-12-16T06:48:43;4.50;;;4.10;;
65822;SDS011;52585;47.566;19.056;2022-12-16T06:54:11;4.00;;;3.70;;
65822;SDS011;52585;47.566;19.056;2022-12-16T06:56:55;4.60;;;4.20;;
65822;SDS011;52585;47.566;19.056;2022-12-16T06:59:39;5.30;;;4.40;;
65822;SDS011;52585;47.566;19.056;2022-12-16T07:02:23;5.40;;;4.90;;
65822;SDS011;52585;47.566;19.056;2022-12-16T07:05:08;6.40;;;5.30;;
65822;SDS011;52585;47.566;19.056;2022-12-16T07:07:52;4.90;;;4.50;;
65822;SDS011;52585;47.566;19.056;2022-12-16T07:10:36;4.50;;;4.00;;
65822;SDS011;52585;47.566;19.056;2022-12-16T07:13:21;4.20;;;3.80;;
65822;SDS011;52585;47.566;19.056;2022-12-16T07:16:05;4.70;;;4.30;;
65822;SDS011;52585;47.566;19.056;2022-12-16T07:18:49;4.70;;;4.30;;
65822;SDS011;52585;47.566;19.056;2022-12-16T07:21:33;5.70;;;4.90;;
65822;SDS011;52585;47.566;19.056;2022-12-16T07:27:01;4.40;;;4.00;;
65822;SDS011;52585;47.566;19.056;2022-12-16T07:29:46;4.60;;;3.90;;
65822;SDS011;52585;47.566;19.056;2022-12-16T07:32:30;5.70;;;4.40;;
65822;SDS011;52585;47.566;19.056;2022-12-16T07:35:14;4.80;;;4.30;;
65822;SDS011;52585;47.566;19.056;2022-12-16T07:37:58;7.50;;;5.80;;
65822;SDS011;52585;47.566;19.056;2022-12-16T07:40:43;5.30;;;4.80;;
65822;SDS011;52585;47.566;19.056;2022-12-16T07:43:27;5.10;;;4.70;;
65822;SDS011;52585;47.566;19.056;2022-12-16T07:46:11;5.30;;;4.30;;
65822;SDS011;52585;47.566;19.056;2022-12-16T07:51:39;5.20;;;4.70;;
65822;SDS011;52585;47.566;19.056;2022-12-16T07:54:23;7.10;;;5.40;;
65822;SDS011;52585;47.566;19.056;2022-12-16T07:59:51;6.10;;;5.20;;
65822;SDS011;52585;47.566;19.056;2022-12-16T08:05:19;5.80;;;5.10;;
65822;SDS011;52585;47.566;19.056;2022-12-16T08:13:32;5.00;;;4.40;;
65822;SDS011;52585;47.566;19.056;2022-12-16T08:19:00;8.40;;;6.10;;
65822;SDS011;52585;47.566;19.056;2022-12-16T08:21:44;7.20;;;6.20;;
65822;SDS011;52585;47.566;19.056;2022-12-16T08:24:28;6.80;;;5.40;;
65822;SDS011;52585;47.566;19.056;2022-12-16T08:27:12;7.10;;;5.40;;
65822;SDS011;52585;47.566;19.056;2022-12-16T08:32:40;6.50;;;5.20;;
65822;SDS011;52585;47.566;19.056;2022-12-16T08:35:24;6.60;;;5.30;;
65822;SDS011;52585;47.566;19.056;2022-12-16T08:38:08;9.00;;;6.80;;
65822;SDS011;52585;47.566;19.056;2022-12-16T08:40:53;7.70;;;6.10;;
65822;SDS011;52585;47.566;19.056;2022-12-16T08:43:39;7.00;;;6.20;;
65822;SDS011;52585;47.566;19.056;2022-12-16T08:46:24;5.90;;;5.30;;
65822;SDS011;52585;47.566;19.056;2022-12-16T08:49:08;7.50;;;6.00;;
65822;SDS011;52585;47.566;19.056;2022-12-16T08:51:52;8.90;;;6.60;;
65822;SDS011;52585;47.566;19.056;2022-12-16T08:54:37;10.50;;;7.60;;
65822;SDS011;52585;47.566;19.056;2022-12-16T08:57:21;8.90;;;7.10;;
65822;SDS011;52585;47.566;19.056;2022-12-16T09:00:06;11.80;;;7.30;;
65822;SDS011;52585;47.566;19.056;2022-12-16T09:02:54;9.20;;;6.30;;
65822;SDS011;52585;47.566;19.056;2022-12-16T09:05:39;10.00;;;7.00;;
65822;SDS011;52585;47.566;19.056;2022-12-16T09:11:07;14.70;;;8.70;;
65822;SDS011;52585;47.566;19.056;2022-12-16T09:13:51;11.90;;;8.90;;
65822;SDS011;52585;47.566;19.056;2022-12-16T09:16:36;13.70;;;8.30;;
65822;SDS011;52585;47.566;19.056;2022-12-16T09:19:20;9.70;;;7.80;;
65822;SDS011;52585;47.566;19.056;2022-12-16T09:22:04;10.00;;;7.70;;
65822;SDS011;52585;47.566;19.056;2022-12-16T09:24:48;14.70;;;9.40;;
65822;SDS011;52585;47.566;19.056;2022-12-16T09:27:40;14.70;;;10.20;;
65822;SDS011;52585;47.566;19.056;2022-12-16T09:30:25;13.90;;;8.80;;
65822;SDS011;52585;47.566;19.056;2022-12-16T09:35:53;10.80;;;7.70;;
65822;SDS011;52585;47.566;19.056;2022-12-16T09:38:37;10.90;;;7.50;;
65822;SDS011;52585;47.566;19.056;2022-12-16T09:41:42;17.00;;;10.50;;
65822;SDS011;52585;47.566;19.056;2022-12-16T09:47:42;11.90;;;9.20;;
65822;SDS011;52585;47.566;19.056;2022-12-16T09:50:53;13.90;;;9.40;;
65822;SDS011;52585;47.566;19.056;2022-12-16T09:53:41;12.20;;;8.70;;
65822;SDS011;52585;47.566;19.056;2022-12-16T09:56:30;12.70;;;8.90;;
65822;SDS011;52585;47.566;19.056;2022-12-16T09:59:30;15.90;;;11.20;;
65822;SDS011;52585;47.566;19.056;2022-12-16T10:02:23;14.90;;;10.20;;
65822;SDS011;52585;47.566;19.056;2022-12-16T10:05:10;14.50;;;9.60;;
65822;SDS011;52585;47.566;19.056;2022-12-16T10:08:35;13.50;;;8.50;;
65822;SDS011;52585;47.566;19.056;2022-12-16T10:14:39;10.70;;;8.10;;
65822;SDS011;52585;47.566;19.056;2022-12-16T10:17:31;18.70;;;10.30;;
65822;SDS011;52585;47.566;19.056;2022-12-16T10:27:13;11.30;;;8.20;;
65822;SDS011;52585;47.566;19.056;2022-12-16T10:30:00;12.70;;;8.70;;
65822;SDS011;52585;47.566;19.056;2022-12-16T10:32:49;10.90;;;7.90;;
65822;SDS011;52585;47.566;19.056;2022-12-16T10:35:52;12.50;;;9.30;;
65822;SDS011;52585;47.566;19.056;2022-12-16T10:38:44;13.60;;;9.50;;
65822;SDS011;52585;47.566;19.056;2022-12-16T10:41:39;12.80;;;9.40;;
65822;SDS011;52585;47.566;19.056;2022-12-16T10:44:47;11.40;;;8.50;;
65822;SDS011;52585;47.566;19.056;2022-12-16T10:47:39;10.80;;;7.70;;
65822;SDS011;52585;47.566;19.056;2022-12-16T10:50:24;12.00;;;8.20;;
65822;SDS011;52585;47.566;19.056;2022-12-16T10:53:26;10.40;;;8.40;;
65822;SDS011;52585;47.566;19.056;2022-12-16T10:59:16;11.10;;;8.30;;
65822;SDS011;52585;47.566;19.056;2022-12-16T11:02:04;10.70;;;7.10;;
65822;SDS011;52585;47.566;19.056;2022-12-16T11:05:01;11.10;;;7.10;;
65822;SDS011;52585;47.566;19.056;2022-12-16T11:08:33;9.20;;;6.30;;
65822;SDS011;52585;47.566;19.056;2022-12-16T11:20:17;11.50;;;7.00;;
65822;SDS011;52585;47.566;19.056;2022-12-16T11:23:20;8.10;;;6.30;;
65822;SDS011;52585;47.566;19.056;2022-12-16T11:26:17;9.60;;;6.80;;
65822;SDS011;52585;47.566;19.056;2022-12-16T11:29:16;11.70;;;8.00;;
65822;SDS011;52585;47.566;19.056;2022-12-16T11:32:23;9.00;;;7.20;;
65822;SDS011;52585;47.566;19.056;2022-12-16T11:35:16;10.10;;;7.90;;
65822;SDS011;52585;47.566;19.056;2022-12-16T11:38:03;8.90;;;7.30;;
65822;SDS011;52585;47.566;19.056;2022-12-16T11:40:51;9.60;;;6.90;;
65822;SDS011;52585;47.566;19.056;2022-12-16T11:43:39;9.30;;;6.90;;
65822;SDS011;52585;47.566;19.056;2022-12-16T11:46:28;14.90;;;8.60;;
65822;SDS011;52585;47.566;19.056;2022-12-16T11:49:20;13.60;;;8.50;;
65822;SDS011;52585;47.566;19.056;2022-12-16T11:52:15;10.60;;;8.20;;
65822;SDS011;52585;47.566;19.056;2022-12-16T11:55:22;12.10;;;8.10;;
65822;SDS011;52585;47.566;19.056;2022-12-16T12:04:33;12.20;;;8.90;;
65822;SDS011;52585;47.566;19.056;2022-12-16T12:13:49;10.50;;;7.60;;
65822;SDS011;52585;47.566;19.056;2022-12-16T12:16:42;11.30;;;8.00;;
65822;SDS011;52585;47.566;19.056;2022-12-16T12:19:52;13.10;;;9.20;;
65822;SDS011;52585;47.566;19.056;2022-12-16T12:22:40;15.00;;;10.20;;
65822;SDS011;52585;47.566;19.056;2022-12-16T12:28:58;12.50;;;8.70;;
65822;SDS011;52585;47.566;19.056;2022-12-16T12:35:36;14.40;;;9.40;;
65822;SDS011;52585;47.566;19.056;2022-12-16T12:38:30;15.50;;;10.20;;
65822;SDS011;52585;47.566;19.056;2022-12-16T12:41:27;17.20;;;9.90;;
65822;SDS011;52585;47.566;19.056;2022-12-16T12:47:07;13.00;;;8.40;;
65822;SDS011;52585;47.566;19.056;2022-12-16T12:50:03;11.60;;;8.00;;
65822;SDS011;52585;47.566;19.056;2022-12-16T12:56:43;10.60;;;7.30;;
65822;SDS011;52585;47.566;19.056;2022-12-16T13:03:00;5.70;;;4.70;;
65822;SDS011;52585;47.566;19.056;2022-12-16T13:05:47;6.10;;;5.10;;
65822;SDS011;52585;47.566;19.056;2022-12-16T13:11:21;7.30;;;6.00;;
65822;SDS011;52585;47.566;19.056;2022-12-16T13:17:19;5.60;;;4.70;;
65822;SDS011;52585;47.566;19.056;2022-12-16T13:26:12;5.90;;;5.20;;
65822;SDS011;52585;47.566;19.056;2022-12-16T13:29:19;9.10;;;5.70;;
65822;SDS011;52585;47.566;19.056;2022-12-16T13:37:52;5.20;;;4.40;;
65822;SDS011;52585;47.566;19.056;2022-12-16T13:40:54;5.20;;;4.20;;
65822;SDS011;52585;47.566;19.056;2022-12-16T13:43:47;5.40;;;4.70;;
65822;SDS011;52585;47.566;19.056;2022-12-16T13:46:53;6.60;;;4.70;;
65822;SDS011;52585;47.566;19.056;2022-12-16T13:49:40;5.20;;;4.00;;
65822;SDS011;52585;47.566;19.056;2022-12-16T13:53:12;4.20;;;3.70;;
65822;SDS011;52585;47.566;19.056;2022-12-16T13:55:54;4.20;;;3.70;;
65822;SDS011;52585;47.566;19.056;2022-12-16T13:58:49;5.50;;;5.00;;
65822;SDS011;52585;47.566;19.056;2022-12-16T14:01:53;6.30;;;5.60;;
65822;SDS011;52585;47.566;19.056;2022-12-16T14:04:46;7.60;;;4.90;;
65822;SDS011;52585;47.566;19.056;2022-12-16T14:07:34;4.90;;;4.40;;
65822;SDS011;52585;47.566;19.056;2022-12-16T14:19:58;4.40;;;4.00;;
65822;SDS011;52585;47.566;19.056;2022-12-16T14:25:43;4.10;;;3.70;;
65822;SDS011;52585;47.566;19.056;2022-12-16T14:28:32;3.90;;;3.50;;
65822;SDS011;52585;47.566;19.056;2022-12-16T14:31:24;5.00;;;3.60;;
65822;SDS011;52585;47.566;19.056;2022-12-16T14:34:17;3.90;;;3.50;;
65822;SDS011;52585;47.566;19.056;2022-12-16T14:37:18;4.60;;;4.10;;
65822;SDS011;52585;47.566;19.056;2022-12-16T14:40:17;4.60;;;4.10;;
65822;SDS011;52585;47.566;19.056;2022-12-16T14:43:01;4.30;;;3.90;;
65822;SDS011;52585;47.566;19.056;2022-12-16T14:45:49;3.80;;;3.50;;
65822;SDS011;52585;47.566;19.056;2022-12-16T14:48:36;4.30;;;3.90;;
65822;SDS011;52585;47.566;19.056;2022-12-16T14:54:21;5.90;;;4.80;;
65822;SDS011;52585;47.566;19.056;2022-12-16T14:57:16;6.50;;;5.10;;
65822;SDS011;52585;47.566;19.056;2022-12-16T15:02:59;5.80;;;5.20;;
65822;SDS011;52585;47.566;19.056;2022-12-16T15:05:52;6.50;;;5.70;;
65822;SDS011;52585;47.566;19.056;2022-12-16T15:08:48;6.70;;;5.40;;
65822;SDS011;52585;47.566;19.056;2022-12-16T15:11:35;8.40;;;6.10;;
65822;SDS011;52585;47.566;19.056;2022-12-16T15:14:31;7.60;;;6.50;;
65822;SDS011;52585;47.566;19.056;2022-12-16T15:17:22;7.20;;;5.70;;
65822;SDS011;52585;47.566;19.056;2022-12-16T15:20:18;7.50;;;6.00;;
65822;SDS011;52585;47.566;19.056;2022-12-16T15:23:22;6.30;;;5.50;;
65822;SDS011;52585;47.566;19.056;2022-12-16T15:26:16;6.60;;;5.00;;
65822;SDS011;52585;47.566;19.056;2022-12-16T15:29:22;9.60;;;6.80;;
65822;SDS011;52585;47.566;19.056;2022-12-16T15:41:34;8.80;;;6.90;;
65822;SDS011;52585;47.566;19.056;2022-12-16T15:44:22;9.20;;;6.90;;
65822;SDS011;52585;47.566;19.056;2022-12-16T15:47:26;11.70;;;9.30;;
65822;SDS011;52585;47.566;19.056;2022-12-16T15:50:14;11.10;;;9.10;;
65822;SDS011;52585;47.566;19.056;2022-12-16T15:53:31;11.10;;;8.60;;
65822;SDS011;52585;47.566;19.056;2022-12-16T15:56:21;10.60;;;7.70;;
65822;SDS011;52585;47.566;19.056;2022-12-16T16:05:15;11.50;;;7.80;;
65822;SDS011;52585;47.566;19.056;2022-12-16T16:08:05;11.80;;;8.30;;
65822;SDS011;52585;47.566;19.056;2022-12-16T16:10:49;10.70;;;7.40;;
65822;SDS011;52585;47.566;19.056;2022-12-16T16:13:33;8.40;;;6.10;;
65822;SDS011;52585;47.566;19.056;2022-12-16T16:16:18;8.90;;;5.70;;
65822;SDS011;52585;47.566;19.056;2022-12-16T16:19:02;9.30;;;5.90;;
65822;SDS011;52585;47.566;19.056;2022-12-16T16:21:52;7.40;;;5.80;;
65822;SDS011;52585;47.566;19.056;2022-12-16T16:24:36;6.60;;;5.70;;
65822;SDS011;52585;47.566;19.056;2022-12-16T16:27:20;8.30;;;5.90;;
65822;SDS011;52585;47.566;19.056;2022-12-16T16:30:05;7.20;;;5.10;;
65822;SDS011;52585;47.566;19.056;2022-12-16T16:32:56;5.50;;;4.70;;
65822;SDS011;52585;47.566;19.056;2022-12-16T16:35:40;8.50;;;4.40;;
65822;SDS011;52585;47.566;19.056;2022-12-16T16:41:13;5.90;;;5.30;;
65822;SDS011;52585;47.566;19.056;2022-12-16T16:43:59;5.40;;;4.50;;
65822;SDS011;52585;47.566;19.056;2022-12-16T16:46:45;5.80;;;4.70;;
65822;SDS011;52585;47.566;19.056;2022-12-16T16:49:34;5.10;;;4.30;;
65822;SDS011;52585;47.566;19.056;2022-12-16T16:52:24;5.30;;;4.30;;
65822;SDS011;52585;47.566;19.056;2022-12-16T16:55:21;6.60;;;5.50;;
65822;SDS011;52585;47.566;19.056;2022-12-16T16:58:26;6.60;;;5.30;;
65822;SDS011;52585;47.566;19.056;2022-12-16T17:01:15;6.30;;;5.20;;
65822;SDS011;52585;47.566;19.056;2022-12-16T17:04:00;5.60;;;4.60;;
65822;SDS011;52585;47.566;19.056;2022-12-16T17:06:45;8.10;;;4.90;;
65822;SDS011;52585;47.566;19.056;2022-12-16T17:09:30;7.50;;;5.40;;
65822;SDS011;52585;47.566;19.056;2022-12-16T17:12:19;7.40;;;6.10;;
65822;SDS011;52585;47.566;19.056;2022-12-16T17:18:05;7.90;;;6.00;;
65822;SDS011;52585;47.566;19.056;2022-12-16T17:20:51;5.80;;;5.10;;
65822;SDS011;52585;47.566;19.056;2022-12-16T17:23:36;8.10;;;5.40;;
65822;SDS011;52585;47.566;19.056;2022-12-16T17:26:22;7.90;;;5.70;;
65822;SDS011;52585;47.566;19.056;2022-12-16T17:29:16;8.60;;;6.30;;
65822;SDS011;52585;47.566;19.056;2022-12-16T17:32:04;10.50;;;6.60;;
65822;SDS011;52585;47.566;19.056;2022-12-16T17:34:49;9.20;;;6.50;;
65822;SDS011;52585;47.566;19.056;2022-12-16T17:37:34;7.20;;;5.60;;
65822;SDS011;52585;47.566;19.056;2022-12-16T17:40:19;6.20;;;5.40;;
65822;SDS011;52585;47.566;19.056;2022-12-16T17:43:04;9.20;;;6.20;;
65822;SDS011;52585;47.566;19.056;2022-12-16T17:46:06;8.70;;;6.10;;
65822;SDS011;52585;47.566;19.056;2022-12-16T17:51:46;12.30;;;7.90;;
65822;SDS011;52585;47.566;19.056;2022-12-16T17:54:30;8.80;;;6.80;;
65822;SDS011;52585;47.566;19.056;2022-12-16T17:57:14;9.20;;;7.10;;
65822;SDS011;52585;47.566;19.056;2022-12-16T17:59:58;8.50;;;6.60;;
65822;SDS011;52585;47.566;19.056;2022-12-16T18:02:43;8.90;;;6.60;;
65822;SDS011;52585;47.566;19.056;2022-12-16T18:05:27;11.60;;;6.50;;
65822;SDS011;52585;47.566;19.056;2022-12-16T18:08:12;10.70;;;7.50;;
65822;SDS011;52585;47.566;19.056;2022-12-16T18:10:57;11.70;;;8.40;;
65822;SDS011;52585;47.566;19.056;2022-12-16T18:13:42;10.40;;;7.50;;
65822;SDS011;52585;47.566;19.056;2022-12-16T18:16:27;10.00;;;7.30;;
65822;SDS011;52585;47.566;19.056;2022-12-16T18:19:13;8.70;;;7.20;;
65822;SDS011;52585;47.566;19.056;2022-12-16T18:21:59;9.00;;;6.90;;
65822;SDS011;52585;47.566;19.056;2022-12-16T18:24:43;11.90;;;8.20;;
65822;SDS011;52585;47.566;19.056;2022-12-16T18:27:28;10.70;;;8.80;;
65822;SDS011;52585;47.566;19.056;2022-12-16T18:30:13;12.50;;;9.50;;
65822;SDS011;52585;47.566;19.056;2022-12-16T18:32:58;10.50;;;8.20;;
65822;SDS011;52585;47.566;19.056;2022-12-16T18:35:42;8.90;;;7.50;;
65822;SDS011;52585;47.566;19.056;2022-12-16T18:38:27;11.50;;;8.60;;
65822;SDS011;52585;47.566;19.056;2022-12-16T18:41:15;10.70;;;8.70;;
65822;SDS011;52585;47.566;19.056;2022-12-16T18:44:03;12.10;;;9.10;;
65822;SDS011;52585;47.566;19.056;2022-12-16T18:46:48;14.50;;;10.50;;
65822;SDS011;52585;47.566;19.056;2022-12-16T18:49:33;17.70;;;11.00;;
65822;SDS011;52585;47.566;19.056;2022-12-16T18:52:18;12.90;;;10.20;;
65822;SDS011;52585;47.566;19.056;2022-12-16T18:55:04;14.50;;;10.50;;
65822;SDS011;52585;47.566;19.056;2022-12-16T18:57:49;12.80;;;9.30;;
65822;SDS011;52585;47.566;19.056;2022-12-16T19:00:34;13.30;;;9.30;;
65822;SDS011;52585;47.566;19.056;2022-12-16T19:03:19;10.60;;;8.50;;
65822;SDS011;52585;47.566;19.056;2022-12-16T19:06:04;16.90;;;10.20;;
65822;SDS011;52585;47.566;19.056;2022-12-16T19:08:48;16.10;;;11.20;;
65822;SDS011;52585;47.566;19.056;2022-12-16T19:11:33;14.30;;;10.00;;